Terminal Aerodrome Forecast
Issued by NWS

Home | Current Version | Previous Version | Text Only | Print | Product List | Glossary On
Versions: 1 2 3 4 5 6 7 8 9 10 11 12
693
FTUS45 KABQ 250525
TAFFMN
TAF
KFMN 250525Z 2506/2606 30008KT P6SM SKC
     FM250900 08007KT P6SM SKC
     FM252000 26015KT P6SM SCT090 BKN120
     FM260200 27007KT P6SM VCSH SCT050 BKN070=

USA.gov is the U.S. government's official web portal to all federal, state and local government web resources and services.